Time;durP1;ratioP1;P1;durP2;ratioP2;P2;SDS_P1;SDS_P2;PMS_P1;PMS_P2;Temp;Humidity;BMP_temperature;BMP_pressure;BME280_temperature;BME280_humidity;BME280_pressure;Samples;Min_cycle;Max_cycle;Signal;HPM_P1;HPM_P2
2021/01/04 00:01:55;;;;;;;;;;;;;;;27.82;28.43;101109.88;5115995;28;1304;-42
2021/01/04 00:04:20;;;;;;;;;;;;;;;27.80;28.52;101111.91;5113847;28;1970;-37
2021/01/04 00:06:58;;;;;;;;;;;;;;;28.42;26.48;101106.56;5116738;28;1279;-33
2021/01/04 00:09:31;;;;;;;;;;;;;;;28.09;27.77;101106.81;5114777;28;1319;-33
2021/01/04 00:12:00;;;;;;;;;;;;;;;28.09;27.33;101107.63;5114728;28;1359;-33
2021/01/04 00:14:25;;;;;;;;;;;;;;;28.10;27.21;101105.78;5115824;28;1276;-33
2021/01/04 00:16:56;;;;;;;;;;;;;;;27.76;28.09;101110.56;5116862;28;1267;-50
2021/01/04 00:19:42;;;;;;;;;;;;;;;27.78;28.18;101105.84;5114823;28;1327;-46
2021/01/04 00:22:40;;;;;;;;;;;;;;;27.78;27.67;101105.00;5115039;28;1213;-51
2021/01/04 00:25:25;;;;;;;;;;;;;;;28.59;26.12;101104.53;5073130;28;1898;-37
2021/01/04 00:28:07;;;;;;;;;;;;;;;28.07;27.37;101096.19;5117919;28;1402;-49
2021/01/04 00:30:33;;;;;;;;;;;;;;;27.81;27.33;101107.34;5116780;28;786;-34
2021/01/04 00:33:01;;;;;;;;;;;;;;;27.98;27.67;101116.19;5118080;28;862;-34
2021/01/04 00:35:26;;;;;;;;;;;;;;;27.77;27.15;101123.09;5118187;28;735;-34
2021/01/04 00:38:10;;;;;;;;;;;;;;;27.69;27.44;101125.84;5117562;28;1101;-44
2021/01/04 00:40:44;;;;;;;;;;;;;;;28.25;27.03;101130.19;5117518;28;846;-33
2021/01/04 00:43:13;;;;;;;;;;;;;;;28.67;26.09;101121.72;5118316;28;813;-52
2021/01/04 00:45:46;;;;;;;;;;;;;;;28.14;27.28;101123.34;5116269;28;1897;-34
2021/01/04 00:48:20;;;;;;;;;;;;;;;27.80;27.97;101121.88;5116529;28;1281;-49
2021/01/04 00:50:58;;;;;;;;;;;;;;;27.68;27.98;101122.28;5117814;28;1086;-33
2021/01/04 00:53:36;;;;;;;;;;;;;;;27.91;27.77;101120.63;5117416;28;1008;-41
2021/01/04 00:56:02;;;;;;;;;;;;;;;27.69;27.59;101118.59;5115680;28;1118;-32
2021/01/04 00:58:47;;;;;;;;;;;;;;;28.50;26.43;101112.91;5117606;28;1284;-33
2021/01/04 01:01:14;;;;;;;;;;;;;;;28.61;26.22;101117.91;5115866;28;1213;-33
2021/01/04 01:04:06;;;;;;;;;;;;;;;27.81;27.67;101110.06;5117749;28;798;-33
2021/01/04 01:06:38;;;;;;;;;;;;;;;27.78;27.89;101111.25;5114026;28;1974;-32
2021/01/04 01:09:03;;;;;;;;;;;;;;;27.80;27.41;101113.75;5116271;28;763;-33
2021/01/04 01:11:29;;;;;;;;;;;;;;;27.94;27.36;101114.88;5117334;28;1157;-48
2021/01/04 01:14:03;;;;;;;;;;;;;;;27.91;27.32;101107.13;5115483;28;1351;-33
2021/01/04 01:16:31;;;;;;;;;;;;;;;28.51;26.21;101107.31;5116377;28;799;-33
2021/01/04 01:19:09;;;;;;;;;;;;;;;28.29;26.96;101118.00;5117376;28;759;-33
2021/01/04 01:21:35;;;;;;;;;;;;;;;27.75;27.87;101115.16;5116415;28;973;-33
2021/01/04 01:24:00;;;;;;;;;;;;;;;27.87;27.02;101120.16;5115323;28;895;-32
2021/01/04 01:26:41;;;;;;;;;;;;;;;27.93;27.46;101115.88;5117275;28;1890;-38
2021/01/04 01:29:18;;;;;;;;;;;;;;;27.81;27.09;101115.47;5113750;28;1185;-52
2021/01/04 01:31:49;;;;;;;;;;;;;;;28.24;27.07;101113.09;5115646;28;1193;-33
2021/01/04 01:34:20;;;;;;;;;;;;;;;28.66;26.01;101110.03;5116959;28;1241;-33
2021/01/04 01:36:57;;;;;;;;;;;;;;;28.22;26.92;101095.38;5116161;28;1288;-33
2021/01/04 01:39:41;;;;;;;;;;;;;;;28.00;27.32;101095.22;5116897;28;1175;-33
2021/01/04 01:42:25;;;;;;;;;;;;;;;27.79;27.46;101094.03;5117105;28;882;-32
2021/01/04 01:45:09;;;;;;;;;;;;;;;27.86;27.75;101089.56;5116360;28;1955;-53
2021/01/04 01:47:34;;;;;;;;;;;;;;;28.09;27.11;101072.47;5116730;28;1189;-34
2021/01/04 01:50:02;;;;;;;;;;;;;;;28.64;26.78;101079.63;5116848;28;1242;-41
2021/01/04 01:52:30;;;;;;;;;;;;;;;28.63;26.62;101082.53;5116498;28;1016;-49
2021/01/04 01:55:02;;;;;;;;;;;;;;;27.91;28.46;101067.38;5117006;28;754;-33
2021/01/04 01:57:42;;;;;;;;;;;;;;;27.97;27.99;101060.44;5116805;28;763;-33
2021/01/04 02:00:09;;;;;;;;;;;;;;;28.02;28.22;101059.88;5116450;28;806;-34
2021/01/04 02:02:37;;;;;;;;;;;;;;;28.00;28.10;101057.34;5115837;28;751;-32
2021/01/04 02:05:06;;;;;;;;;;;;;;;27.86;28.90;101062.53;5116997;28;1919;-41
2021/01/04 02:07:34;;;;;;;;;;;;;;;28.63;27.34;101066.28;5116358;28;949;-58
2021/01/04 02:10:00;;;;;;;;;;;;;;;28.32;28.17;101060.81;5116817;28;827;-36
2021/01/04 02:12:26;;;;;;;;;;;;;;;27.95;28.95;101066.03;5115613;28;797;-32
2021/01/04 02:15:06;;;;;;;;;;;;;;;27.83;29.09;101054.78;5116118;28;842;-47
2021/01/04 02:17:50;;;;;;;;;;;;;;;27.99;28.22;101050.28;5116588;28;755;-33
2021/01/04 02:20:27;;;;;;;;;;;;;;;27.84;28.66;101061.03;5117235;28;810;-33
2021/01/04 02:23:11;;;;;;;;;;;;;;;28.33;27.98;101064.34;5116151;28;941;-37
2021/01/04 02:25:37;;;;;;;;;;;;;;;28.48;26.80;101045.44;5116514;28;1905;-34
2021/01/04 02:28:03;;;;;;;;;;;;;;;27.93;27.81;101053.69;5115690;28;823;-33
2021/01/04 02:30:29;;;;;;;;;;;;;;;28.28;27.76;101050.53;5115742;28;790;-32
2021/01/04 02:32:54;;;;;;;;;;;;;;;28.07;27.16;101054.75;5116642;28;799;-32
2021/01/04 02:35:19;;;;;;;;;;;;;;;27.94;28.00;101055.38;5117188;28;851;-49
2021/01/04 02:37:45;;;;;;;;;;;;;;;28.13;27.99;101048.63;5119315;28;949;-32
2021/01/04 02:40:11;;;;;;;;;;;;;;;28.53;26.80;101051.16;5120021;28;791;-53
2021/01/04 02:42:43;;;;;;;;;;;;;;;28.68;26.05;101053.84;5120394;28;814;-32
2021/01/04 02:45:09;;;;;;;;;;;;;;;27.83;27.96;101052.06;5120078;28;1959;-32
2021/01/04 02:47:44;;;;;;;;;;;;;;;27.61;28.28;101049.16;5119086;28;1617;-33
2021/01/04 02:50:12;;;;;;;;;;;;;;;27.76;27.94;101043.00;5120318;28;1094;-44
2021/01/04 02:52:43;;;;;;;;;;;;;;;27.98;27.92;101037.75;5119691;28;1030;-33
2021/01/04 02:55:11;;;;;;;;;;;;;;;27.90;27.66;101040.53;5120023;28;968;-33
2021/01/04 02:57:36;;;;;;;;;;;;;;;28.67;26.28;101032.41;5118486;28;854;-32
2021/01/04 03:00:05;;;;;;;;;;;;;;;28.67;26.34;101037.81;5119708;28;755;-34
2021/01/04 03:02:33;;;;;;;;;;;;;;;28.01;27.23;101037.41;5119887;28;1150;-43
2021/01/04 03:04:59;;;;;;;;;;;;;;;27.77;27.54;101033.03;5120225;28;1956;-34
2021/01/04 03:07:25;;;;;;;;;;;;;;;27.74;27.43;101031.53;5119125;27;996;-34
2021/01/04 03:09:51;;;;;;;;;;;;;;;28.06;27.56;101034.16;5119904;28;802;-47
2021/01/04 03:12:18;;;;;;;;;;;;;;;27.91;27.24;101031.41;5119545;28;826;-45
2021/01/04 03:14:58;;;;;;;;;;;;;;;28.54;26.37;101038.47;5119247;28;727;-34
2021/01/04 03:17:41;;;;;;;;;;;;;;;28.78;25.90;101029.22;5119613;28;759;-34
2021/01/04 03:20:08;;;;;;;;;;;;;;;27.85;27.65;101022.16;5119236;28;779;-34
2021/01/04 03:22:33;;;;;;;;;;;;;;;27.95;27.08;101021.91;5118369;28;938;-34
2021/01/04 03:24:58;;;;;;;;;;;;;;;27.98;26.82;101033.22;5118333;28;1905;-34
2021/01/04 03:27:30;;;;;;;;;;;;;;;28.02;27.06;101035.53;5118627;28;813;-34
2021/01/04 03:29:55;;;;;;;;;;;;;;;27.91;27.17;101034.13;5119499;28;767;-33
2021/01/04 03:32:20;;;;;;;;;;;;;;;28.56;26.47;101036.41;5119202;28;510;-46
2021/01/04 03:34:46;;;;;;;;;;;;;;;28.67;26.17;101033.25;5118787;28;747;-34
2021/01/04 03:37:11;;;;;;;;;;;;;;;28.02;27.23;101030.13;5118725;28;961;-42
2021/01/04 03:39:36;;;;;;;;;;;;;;;28.04;27.84;101028.09;5119328;28;799;-42
2021/01/04 03:42:02;;;;;;;;;;;;;;;27.98;27.35;101027.78;5118890;28;834;-33
2021/01/04 03:44:28;;;;;;;;;;;;;;;27.95;27.52;101028.16;5119148;28;1952;-33
2021/01/04 03:46:53;;;;;;;;;;;;;;;28.04;27.75;101028.94;5118565;28;1130;-33
2021/01/04 03:49:18;;;;;;;;;;;;;;;28.65;26.45;101032.59;5118718;28;1246;-42
2021/01/04 03:52:01;;;;;;;;;;;;;;;28.75;26.48;101036.88;5118545;28;1016;-34
2021/01/04 03:54:27;;;;;;;;;;;;;;;28.09;27.84;101025.69;5119130;28;830;-33
2021/01/04 03:56:52;;;;;;;;;;;;;;;27.82;27.69;101028.78;5118553;28;806;-32
2021/01/04 03:59:18;;;;;;;;;;;;;;;27.90;27.72;101032.41;5118737;28;763;-33
2021/01/04 04:01:49;;;;;;;;;;;;;;;28.04;27.42;101033.50;5118687;28;787;-32
2021/01/04 04:04:15;;;;;;;;;;;;;;;28.09;27.61;101028.38;5118619;28;806;-41
2021/01/04 04:06:40;;;;;;;;;;;;;;;28.67;26.75;101027.84;5118434;28;1890;-43
2021/01/04 04:09:05;;;;;;;;;;;;;;;28.53;27.07;101028.69;5118510;28;774;-39
2021/01/04 04:11:30;;;;;;;;;;;;;;;28.24;27.57;101036.53;5118646;28;810;-50
2021/01/04 04:13:56;;;;;;;;;;;;;;;28.10;27.59;101038.16;5118263;28;759;-33
2021/01/04 04:16:21;;;;;;;;;;;;;;;27.70;28.21;101035.63;5118323;28;767;-47
2021/01/04 04:18:46;;;;;;;;;;;;;;;27.83;27.90;101035.00;5118469;28;862;-40
2021/01/04 04:21:13;;;;;;;;;;;;;;;28.10;27.90;101027.34;5117933;28;965;-47
2021/01/04 04:23:38;;;;;;;;;;;;;;;28.18;26.80;101031.84;5118204;28;751;-41
2021/01/04 04:26:03;;;;;;;;;;;;;;;27.47;27.95;101028.31;5118232;28;1970;-33
2021/01/04 04:28:28;;;;;;;;;;;;;;;27.56;28.34;101021.00;5117864;28;751;-32
2021/01/04 04:30:54;;;;;;;;;;;;;;;27.69;28.11;101029.38;5118145;28;882;-33
2021/01/04 04:33:19;;;;;;;;;;;;;;;27.83;27.81;101026.91;5117972;28;814;-42
2021/01/04 04:35:45;;;;;;;;;;;;;;;27.82;27.94;101017.13;5117792;28;795;-33
2021/01/04 04:38:10;;;;;;;;;;;;;;;27.54;28.02;101017.63;5118063;28;1008;-41
2021/01/04 04:40:35;;;;;;;;;;;;;;;26.98;28.54;101014.88;5118104;28;767;-35
2021/01/04 04:43:10;;;;;;;;;;;;;;;27.46;28.46;101013.13;5117612;28;862;-33
2021/01/04 04:45:36;;;;;;;;;;;;;;;27.76;27.40;101010.56;5118197;28;1962;-35
2021/01/04 04:48:01;;;;;;;;;;;;;;;27.25;27.99;101020.84;5117831;28;1114;-33
2021/01/04 04:50:45;;;;;;;;;;;;;;;27.09;28.78;101023.63;5117287;28;1782;-35
2021/01/04 04:53:13;;;;;;;;;;;;;;;27.07;29.13;101018.41;5117593;28;957;-32
2021/01/04 04:55:38;;;;;;;;;;;;;;;27.31;27.11;101021.97;5117834;28;870;-35
2021/01/04 04:58:22;;;;;;;;;;;;;;;26.38;28.00;101023.31;5116314;28;842;-39
2021/01/04 05:00:53;;;;;;;;;;;;;;;26.61;28.34;101027.16;5117431;28;835;-39
2021/01/04 05:03:18;;;;;;;;;;;;;;;26.94;27.36;101018.94;5116586;28;759;-43
2021/01/04 05:06:01;;;;;;;;;;;;;;;25.46;29.02;101010.81;5117031;28;1984;-36
2021/01/04 05:08:32;;;;;;;;;;;;;;;24.37;30.29;101010.31;5117417;28;941;-35
2021/01/04 05:10:58;;;;;;;;;;;;;;;23.67;31.40;101010.03;5117297;28;747;-33
2021/01/04 05:13:27;;;;;;;;;;;;;;;23.27;32.24;101006.78;5116004;28;814;-34
2021/01/04 05:15:52;;;;;;;;;;;;;;;23.15;32.54;101010.66;5116376;28;751;-33
2021/01/04 05:18:36;;;;;;;;;;;;;;;23.31;32.34;101018.03;5116932;28;926;-37
2021/01/04 05:21:22;;;;;;;;;;;;;;;24.39;31.67;101019.03;5117373;28;914;-36
2021/01/04 05:23:53;;;;;;;;;;;;;;;25.68;29.89;101012.88;5055543;28;1010;-35
2021/01/04 05:26:37;;;;;;;;;;;;;;;26.25;28.89;101014.88;5096558;28;1901;-36
2021/01/04 05:29:21;;;;;;;;;;;;;;;26.40;28.66;101021.31;5096916;28;897;-36
2021/01/04 05:31:55;;;;;;;;;;;;;;;25.87;29.50;101027.03;5097022;28;783;-35
2021/01/04 05:34:36;;;;;;;;;;;;;;;26.81;28.03;101019.50;5096413;28;818;-36
2021/01/04 05:37:13;;;;;;;;;;;;;;;27.18;27.41;101022.56;5104213;28;1061;-33
2021/01/04 05:40:05;;;;;;;;;;;;;;;26.70;28.26;101020.72;5117574;28;806;-37
2021/01/04 05:42:49;;;;;;;;;;;;;;;26.43;28.82;101033.59;5112727;28;1182;-36
2021/01/04 05:45:18;;;;;;;;;;;;;;;25.82;29.87;101045.56;5117202;28;1889;-36
2021/01/04 05:48:02;;;;;;;;;;;;;;;27.02;28.00;101042.41;5115809;28;1182;-37
2021/01/04 05:50:36;;;;;;;;;;;;;;;27.26;27.75;101041.44;5117209;28;1100;-40
2021/01/04 05:53:01;;;;;;;;;;;;;;;27.05;27.86;101038.50;5115244;28;1189;-37
2021/01/04 05:55:26;;;;;;;;;;;;;;;26.74;28.44;101042.81;5116550;28;743;-37
2021/01/04 05:57:52;;;;;;;;;;;;;;;26.40;29.19;101042.03;5117091;28;767;-37
2021/01/04 06:00:32;;;;;;;;;;;;;;;26.56;29.23;101048.41;5117208;28;743;-37
2021/01/04 06:03:05;;;;;;;;;;;;;;;27.24;27.84;101048.03;5116582;28;803;-36
2021/01/04 06:05:30;;;;;;;;;;;;;;;27.11;27.91;101056.72;5117088;28;1983;-37
2021/01/04 06:07:55;;;;;;;;;;;;;;;26.57;29.11;101053.63;5116952;28;1016;-37
2021/01/04 06:10:20;;;;;;;;;;;;;;;26.06;29.88;101045.75;5118470;28;830;-36
2021/01/04 06:12:47;;;;;;;;;;;;;;;25.88;30.26;101036.81;5120970;28;762;-38
2021/01/04 06:15:12;;;;;;;;;;;;;;;26.48;29.27;101039.31;5119808;28;799;-39
2021/01/04 06:17:43;;;;;;;;;;;;;;;27.04;28.55;101037.66;5120204;28;815;-37
2021/01/04 06:20:15;;;;;;;;;;;;;;;26.00;30.32;101041.84;5119343;28;1314;-42
2021/01/04 06:22:41;;;;;;;;;;;;;;;25.95;30.16;101041.50;5120694;28;984;-38
2021/01/04 06:25:07;;;;;;;;;;;;;;;25.88;30.53;101039.50;5120270;28;1905;-35
2021/01/04 06:27:34;;;;;;;;;;;;;;;25.59;30.88;101037.25;5120563;28;788;-39
2021/01/04 06:30:22;;;;;;;;;;;;;;;26.61;29.14;101046.88;5120554;28;763;-36
2021/01/04 06:32:48;;;;;;;;;;;;;;;26.46;29.39;101045.91;5109307;28;1603;-37
2021/01/04 06:35:16;;;;;;;;;;;;;;;25.94;30.19;101046.09;5116613;28;851;-39
2021/01/04 06:37:42;;;;;;;;;;;;;;;25.74;30.59;101040.16;5119461;28;843;-41
2021/01/04 06:40:11;;;;;;;;;;;;;;;25.73;30.93;101041.16;5119736;28;910;-38
2021/01/04 06:42:38;;;;;;;;;;;;;;;26.73;29.08;101041.09;5120133;28;882;-37
2021/01/04 06:45:09;;;;;;;;;;;;;;;26.63;29.19;101044.00;5119488;27;1905;-41
2021/01/04 06:47:47;;;;;;;;;;;;;;;25.96;30.11;101043.22;5120553;27;1007;-36
2021/01/04 06:50:12;;;;;;;;;;;;;;;25.71;30.68;101044.03;5119330;28;1145;-36
2021/01/04 06:52:47;;;;;;;;;;;;;;;25.87;30.56;101043.22;5117130;27;1140;-39
2021/01/04 06:55:24;;;;;;;;;;;;;;;26.11;30.16;101044.22;5109608;27;1067;-39
2021/01/04 06:57:50;;;;;;;;;;;;;;;26.17;29.94;101050.78;5110354;28;811;-38
2021/01/04 07:00:18;;;;;;;;;;;;;;;26.02;30.20;101048.78;5115844;28;834;-38
2021/01/04 07:02:46;;;;;;;;;;;;;;;25.84;30.43;101045.41;5103273;28;1116;-39
2021/01/04 07:05:27;;;;;;;;;;;;;;;25.33;31.28;101039.03;5117860;28;1974;-39
2021/01/04 07:07:58;;;;;;;;;;;;;;;26.20;30.09;101025.34;5109810;28;1031;-37
2021/01/04 07:10:26;;;;;;;;;;;;;;;26.14;30.34;101025.00;5115146;27;1101;-37
2021/01/04 07:12:52;;;;;;;;;;;;;;;26.10;30.00;101025.50;5112436;27;1383;-39
2021/01/04 07:15:26;;;;;;;;;;;;;;;25.86;30.56;101013.75;5122414;27;1006;-41
2021/01/04 07:17:55;;;;;;;;;;;;;;;25.53;31.04;101006.41;5120613;27;751;-38
2021/01/04 07:20:38;;;;;;;;;;;;;;;26.37;29.78;101012.72;5123227;27;871;-38
2021/01/04 07:23:22;;;;;;;;;;;;;;;25.95;30.51;101014.56;5119053;28;980;-41
2021/01/04 07:25:50;;;;;;;;;;;;;;;25.91;30.55;101014.91;5118938;28;1965;-41
2021/01/04 07:28:25;;;;;;;;;;;;;;;25.79;30.72;101027.03;5119245;28;855;-41
2021/01/04 07:30:54;;;;;;;;;;;;;;;25.59;31.09;101019.22;5119417;28;778;-41
2021/01/04 07:33:24;;;;;;;;;;;;;;;25.16;31.96;101022.81;5119097;28;854;-41
2021/01/04 07:35:52;;;;;;;;;;;;;;;25.84;30.69;101029.22;5117553;28;534;-41
2021/01/04 07:38:21;;;;;;;;;;;;;;;25.91;30.49;101020.28;5117791;28;930;-41
2021/01/04 07:40:52;;;;;;;;;;;;;;;25.82;30.70;101021.31;5118720;28;747;-41
2021/01/04 07:43:56;;;;;;;;;;;;;;;25.78;30.90;101018.09;5118980;28;779;-41
2021/01/04 07:46:39;;;;;;;;;;;;;;;25.77;31.03;101004.81;5035489;28;1968;-41
2021/01/04 07:49:23;;;;;;;;;;;;;;;26.24;30.21;101003.25;5036068;28;752;-41
2021/01/04 07:52:07;;;;;;;;;;;;;;;25.97;30.60;101012.53;5094933;28;1011;-42
2021/01/04 07:54:51;;;;;;;;;;;;;;;25.83;30.81;101017.59;5118407;28;747;-42
2021/01/04 07:57:19;;;;;;;;;;;;;;;25.40;31.57;101010.44;5118585;28;736;-42
2021/01/04 07:59:50;;;;;;;;;;;;;;;26.53;29.82;101003.72;5118856;28;751;-43
2021/01/04 08:02:24;;;;;;;;;;;;;;;26.14;30.25;101000.72;5118116;28;692;-42
2021/01/04 08:05:25;;;;;;;;;;;;;;;25.88;30.77;100999.06;5118592;28;1918;-42
2021/01/04 08:08:13;;;;;;;;;;;;;;;25.61;31.04;100992.97;5035686;28;998;-42
2021/01/04 08:10:44;;;;;;;;;;;;;;;25.47;31.70;101002.56;5090997;28;1240;-42
2021/01/04 08:13:28;;;;;;;;;;;;;;;26.68;29.49;100987.66;5096315;28;872;-42
2021/01/04 08:15:57;;;;;;;;;;;;;;;26.19;30.16;100991.31;5097762;28;744;-42
2021/01/04 08:18:22;;;;;;;;;;;;;;;25.92;30.68;100984.22;5096685;28;783;-43
2021/01/04 08:20:51;;;;;;;;;;;;;;;25.73;30.93;100992.66;5096853;28;802;-42
2021/01/04 08:23:35;;;;;;;;;;;;;;;26.31;30.22;100989.91;5115842;28;934;-42
2021/01/04 08:26:03;;;;;;;;;;;;;;;26.63;29.34;100985.50;5117914;28;1980;-42
2021/01/04 08:28:32;;;;;;;;;;;;;;;26.19;30.25;100988.59;5117452;28;1026;-42
2021/01/04 08:31:10;;;;;;;;;;;;;;;26.04;30.63;100983.91;5117835;28;803;-42
2021/01/04 08:33:56;;;;;;;;;;;;;;;25.84;30.96;100973.44;5116046;28;790;-42
2021/01/04 08:36:21;;;;;;;;;;;;;;;26.91;29.15;100978.78;5116198;28;1276;-42
2021/01/04 08:38:47;;;;;;;;;;;;;;;26.27;30.25;100972.41;5117903;28;826;-42
2021/01/04 08:41:15;;;;;;;;;;;;;;;26.13;30.39;100964.00;5117536;28;953;-42
2021/01/04 08:43:44;;;;;;;;;;;;;;;26.03;30.63;100963.34;5118311;28;827;-42
2021/01/04 08:46:15;;;;;;;;;;;;;;;25.73;30.97;100952.25;5117514;28;1910;-44
2021/01/04 08:48:40;;;;;;;;;;;;;;;26.16;30.40;100963.66;5117924;28;819;-42
2021/01/04 08:51:10;;;;;;;;;;;;;;;25.76;31.19;100965.38;5117626;28;1094;-38
2021/01/04 08:53:35;;;;;;;;;;;;;;;26.06;30.51;100960.31;5096800;28;755;-42
2021/01/04 08:56:05;;;;;;;;;;;;;;;25.88;30.84;100964.03;5097404;28;798;-42
2021/01/04 08:58:30;;;;;;;;;;;;;;;25.81;31.02;100963.00;5097422;28;771;-42
2021/01/04 09:00:59;;;;;;;;;;;;;;;25.49;31.40;100960.13;5096776;28;747;-37
2021/01/04 09:03:25;;;;;;;;;;;;;;;25.48;31.67;100960.28;5095466;28;1050;-43
2021/01/04 09:05:50;;;;;;;;;;;;;;;25.96;30.63;100956.97;5095900;28;1901;-42
2021/01/04 09:08:15;;;;;;;;;;;;;;;26.06;30.54;100957.59;5114867;28;1070;-42
2021/01/04 09:10:43;;;;;;;;;;;;;;;25.74;31.01;100943.16;5115978;28;874;-37
2021/01/04 09:13:26;;;;;;;;;;;;;;;26.17;30.53;100941.06;5117225;28;1175;-36
2021/01/04 09:15:51;;;;;;;;;;;;;;;25.91;30.86;100947.53;5117215;28;836;-37
2021/01/04 09:18:26;;;;;;;;;;;;;;;26.17;30.45;100943.75;5115932;28;1288;-39
2021/01/04 09:21:20;;;;;;;;;;;;;;;26.11;30.87;100939.06;5117645;28;803;-38
2021/01/04 09:23:45;;;;;;;;;;;;;;;26.01;30.98;100930.31;5078797;28;1225;-37
2021/01/04 09:26:25;;;;;;;;;;;;;;;25.99;31.33;100926.97;5096876;28;1957;-38
2021/01/04 09:29:00;;;;;;;;;;;;;;;26.06;30.97;100921.75;5095706;28;834;-43
2021/01/04 09:31:25;;;;;;;;;;;;;;;26.35;30.33;100918.47;5095639;28;751;-34
2021/01/04 09:33:51;;;;;;;;;;;;;;;26.37;30.43;100912.91;5096954;28;882;-40
2021/01/04 09:36:18;;;;;;;;;;;;;;;26.56;30.42;100903.56;5096573;28;934;-38
2021/01/04 09:38:43;;;;;;;;;;;;;;;26.68;30.04;100900.47;5115408;28;875;-39
2021/01/04 09:41:09;;;;;;;;;;;;;;;26.76;29.78;100898.56;5117158;28;759;-36
2021/01/04 09:43:35;;;;;;;;;;;;;;;26.76;29.91;100895.88;5117821;28;770;-40
2021/01/04 09:46:12;;;;;;;;;;;;;;;26.65;30.00;100882.78;5120624;28;1952;-40
2021/01/04 09:48:43;;;;;;;;;;;;;;;26.78;29.95;100888.44;5100882;28;811;-37
2021/01/04 09:51:08;;;;;;;;;;;;;;;26.86;29.83;100882.16;5099527;28;1233;-37
2021/01/04 09:53:34;;;;;;;;;;;;;;;26.90;29.88;100883.50;5119679;28;794;-38
2021/01/04 09:56:03;;;;;;;;;;;;;;;26.86;29.85;100881.34;5121187;27;732;-44
2021/01/04 09:58:29;;;;;;;;;;;;;;;26.88;29.76;100876.56;5121190;28;959;-38
2021/01/04 10:01:11;;;;;;;;;;;;;;;26.95;29.89;100874.00;5120827;28;763;-38
2021/01/04 10:03:37;;;;;;;;;;;;;;;26.99;29.90;100870.75;5120798;28;902;-44
2021/01/04 10:06:04;;;;;;;;;;;;;;;26.94;29.90;100872.34;5120815;28;1910;-37
2021/01/04 10:08:30;;;;;;;;;;;;;;;27.00;30.02;100864.34;5120426;28;1020;-38
2021/01/04 10:11:02;;;;;;;;;;;;;;;27.09;29.83;100850.84;5119578;28;748;-38
2021/01/04 10:13:28;;;;;;;;;;;;;;;27.09;29.87;100845.44;5120923;28;810;-37
2021/01/04 10:15:54;;;;;;;;;;;;;;;27.07;30.02;100836.66;5120422;28;814;-37
2021/01/04 10:18:31;;;;;;;;;;;;;;;27.08;29.81;100835.63;5119612;28;846;-37
2021/01/04 10:20:56;;;;;;;;;;;;;;;27.11;29.85;100835.28;5119502;28;759;-38
2021/01/04 10:23:28;;;;;;;;;;;;;;;27.13;29.85;100830.53;5118273;28;962;-36
2021/01/04 10:25:55;;;;;;;;;;;;;;;27.17;29.99;100831.88;5120278;28;1969;-38
2021/01/04 10:28:20;;;;;;;;;;;;;;;27.08;30.11;100830.22;5119206;28;811;-38
2021/01/04 10:30:45;;;;;;;;;;;;;;;25.96;30.71;100825.72;5120234;28;740;-38
2021/01/04 10:33:27;;;;;;;;;;;;;;;24.65;33.08;100815.63;5120500;28;735;-49
2021/01/04 10:36:00;;;;;;;;;;;;;;;23.41;34.96;100812.16;5119364;28;1469;-42
2021/01/04 10:38:25;;;;;;;;;;;;;;;23.06;35.87;100809.31;5118759;28;953;-41
2021/01/04 10:40:50;;;;;;;;;;;;;;;23.45;37.67;100813.53;5114763;28;823;-40
2021/01/04 10:43:19;;;;;;;;;;;;;;;23.45;38.32;100813.53;5098549;28;982;-42
2021/01/04 10:45:45;;;;;;;;;;;;;;;22.92;37.61;100808.00;5099324;28;1902;-42
2021/01/04 10:48:13;;;;;;;;;;;;;;;23.26;36.38;100798.41;5116563;28;1099;-41
2021/01/04 10:50:39;;;;;;;;;;;;;;;23.21;35.56;100798.03;5116437;28;1310;-41
2021/01/04 10:53:09;;;;;;;;;;;;;;;22.71;36.45;100787.72;5117894;28;1144;-46
2021/01/04 10:55:35;;;;;;;;;;;;;;;23.05;35.88;100788.00;5118892;28;845;-44
2021/01/04 10:58:26;;;;;;;;;;;;;;;23.46;34.82;100788.34;5119846;28;778;-42
2021/01/04 11:00:55;;;;;;;;;;;;;;;23.79;34.04;100795.78;5115311;28;1131;-42
2021/01/04 11:03:20;;;;;;;;;;;;;;;24.24;33.84;100792.16;5119845;28;803;-43
2021/01/04 11:05:49;;;;;;;;;;;;;;;24.30;33.45;100794.19;5117651;28;1970;-49
2021/01/04 11:08:17;;;;;;;;;;;;;;;24.66;32.88;100787.72;5118753;27;942;-48
2021/01/04 11:11:02;;;;;;;;;;;;;;;25.10;32.97;100788.47;5119843;28;839;-37
2021/01/04 11:13:29;;;;;;;;;;;;;;;24.99;32.45;100779.69;5119016;28;1896;-36
2021/01/04 11:16:07;;;;;;;;;;;;;;;25.10;32.83;100766.91;5119298;28;818;-38
2021/01/04 11:18:33;;;;;;;;;;;;;;;25.28;33.05;100759.50;5119752;28;778;-38
2021/01/04 11:20:58;;;;;;;;;;;;;;;25.43;32.75;100750.72;5117770;28;1542;-37
2021/01/04 11:23:23;;;;;;;;;;;;;;;25.40;32.16;100753.78;5119220;28;945;-37
2021/01/04 11:25:49;;;;;;;;;;;;;;;25.37;32.48;100744.19;5119421;28;1960;-37
2021/01/04 11:28:14;;;;;;;;;;;;;;;25.19;32.51;100745.22;5119398;28;750;-37
2021/01/04 11:30:39;;;;;;;;;;;;;;;25.37;32.54;100736.13;5119008;28;719;-37
2021/01/04 11:33:05;;;;;;;;;;;;;;;25.54;32.22;100736.91;5119373;28;735;-37
2021/01/04 11:35:30;;;;;;;;;;;;;;;25.61;32.50;100737.03;5118929;28;854;-38
2021/01/04 11:37:56;;;;;;;;;;;;;;;25.39;32.07;100719.78;5118533;28;953;-37
2021/01/04 11:40:21;;;;;;;;;;;;;;;25.47;31.95;100722.47;5119247;28;727;-38
2021/01/04 11:42:46;;;;;;;;;;;;;;;25.49;31.75;100717.72;5119138;28;870;-36
2021/01/04 11:45:13;;;;;;;;;;;;;;;25.56;31.56;100716.03;5118468;28;1965;-37
2021/01/04 11:47:38;;;;;;;;;;;;;;;25.37;31.53;100714.56;5119108;28;1158;-36
2021/01/04 11:50:05;;;;;;;;;;;;;;;25.60;31.78;100710.28;5118866;28;1215;-38
2021/01/04 11:52:31;;;;;;;;;;;;;;;25.66;31.54;100710.47;5118322;28;1008;-38
2021/01/04 11:54:56;;;;;;;;;;;;;;;25.55;31.14;100708.97;5118630;28;807;-37
2021/01/04 11:57:21;;;;;;;;;;;;;;;25.51;31.47;100714.84;5118741;28;846;-37
2021/01/04 11:59:47;;;;;;;;;;;;;;;25.61;31.12;100703.91;5118540;28;735;-36
2021/01/04 12:02:12;;;;;;;;;;;;;;;25.46;30.93;100704.59;5119203;28;731;-36
2021/01/04 12:04:37;;;;;;;;;;;;;;;25.33;31.13;100701.59;5119032;28;735;-38
2021/01/04 12:07:03;;;;;;;;;;;;;;;25.53;30.93;100694.81;5117709;28;1913;-38
2021/01/04 12:09:28;;;;;;;;;;;;;;;25.66;31.01;100697.00;5118935;28;794;-38
2021/01/04 12:11:53;;;;;;;;;;;;;;;25.52;31.17;100684.22;5118678;28;798;-38
2021/01/04 12:14:19;;;;;;;;;;;;;;;25.47;30.81;100687.44;5118149;28;862;-36
2021/01/04 12:16:44;;;;;;;;;;;;;;;25.66;30.89;100691.59;5118429;27;742;-39
2021/01/04 12:19:09;;;;;;;;;;;;;;;25.62;30.88;100695.66;5116632;28;887;-37
2021/01/04 12:21:35;;;;;;;;;;;;;;;25.43;30.79;100695.03;5118152;28;960;-38
2021/01/04 12:24:00;;;;;;;;;;;;;;;25.36;30.99;100699.41;5118332;28;723;-36
2021/01/04 12:26:25;;;;;;;;;;;;;;;25.49;30.70;100700.75;5117974;28;1905;-37
2021/01/04 12:28:51;;;;;;;;;;;;;;;25.42;30.72;100697.91;5117925;28;811;-36
2021/01/04 12:31:17;;;;;;;;;;;;;;;25.49;30.75;100692.66;5118457;28;759;-36
2021/01/04 12:33:43;;;;;;;;;;;;;;;25.53;30.31;100693.97;5118063;28;810;-36
2021/01/04 12:36:14;;;;;;;;;;;;;;;25.60;30.31;100681.50;5117874;28;933;-37
2021/01/04 12:38:39;;;;;;;;;;;;;;;25.49;30.40;100681.88;5116248;28;866;-36
2021/01/04 12:41:04;;;;;;;;;;;;;;;25.53;30.38;100673.28;5117823;28;802;-37
2021/01/04 12:43:30;;;;;;;;;;;;;;;25.58;30.54;100685.38;5117698;28;802;-38
2021/01/04 12:45:55;;;;;;;;;;;;;;;25.62;30.27;100675.94;5117938;28;1909;-37
2021/01/04 12:48:20;;;;;;;;;;;;;;;25.48;30.70;100683.72;5117658;28;1225;-36
2021/01/04 12:50:45;;;;;;;;;;;;;;;25.26;31.05;100679.91;5117552;28;1158;-37
2021/01/04 12:53:11;;;;;;;;;;;;;;;25.12;31.73;100673.41;5117482;28;1017;-39
2021/01/04 12:55:36;;;;;;;;;;;;;;;25.12;31.77;100663.47;5117534;28;834;-36
2021/01/04 12:58:05;;;;;;;;;;;;;;;25.06;31.30;100673.06;5117771;28;767;-36
2021/01/04 13:00:30;;;;;;;;;;;;;;;25.26;31.02;100680.75;5117778;28;806;-37
2021/01/04 13:02:56;;;;;;;;;;;;;;;25.15;30.69;100673.91;5117430;28;960;-38
2021/01/04 13:05:21;;;;;;;;;;;;;;;25.23;30.70;100681.09;5117515;28;1914;-36
2021/01/04 13:07:47;;;;;;;;;;;;;;;25.21;30.42;100672.34;5117231;28;996;-39
2021/01/04 13:10:12;;;;;;;;;;;;;;;25.33;30.18;100677.38;5117389;28;761;-37